sensor_id;sensor_type;location;lat;lon;timestamp;temperature;humidity
81902;DHT22;71369;50.796;3.290;2023-12-14T00:17:55;9.70;99.90
81902;DHT22;71369;50.796;3.290;2023-12-14T00:27:42;9.80;99.90
81902;DHT22;71369;50.796;3.290;2023-12-14T00:30:29;9.60;99.90
81902;DHT22;71369;50.796;3.290;2023-12-14T00:33:18;9.60;99.90
81902;DHT22;71369;50.796;3.290;2023-12-14T00:36:31;9.80;99.90
81902;DHT22;71369;50.796;3.290;2023-12-14T00:39:37;9.70;99.90
81902;DHT22;71369;50.796;3.290;2023-12-14T00:42:25;9.80;99.90
81902;DHT22;71369;50.796;3.290;2023-12-14T00:45:20;9.70;99.90
81902;DHT22;71369;50.796;3.290;2023-12-14T00:48:13;9.80;99.90
81902;DHT22;71369;50.796;3.290;2023-12-14T00:53:50;9.70;99.90
81902;DHT22;71369;50.796;3.290;2023-12-14T01:00:06;9.80;99.90
81902;DHT22;71369;50.796;3.290;2023-12-14T01:06:29;9.80;99.90
81902;DHT22;71369;50.796;3.290;2023-12-14T01:24:13;9.40;99.90
81902;DHT22;71369;50.796;3.290;2023-12-14T01:30:33;9.30;99.90
81902;DHT22;71369;50.796;3.290;2023-12-14T01:54:47;8.80;99.40
81902;DHT22;71369;50.796;3.290;2023-12-14T02:07:05;8.80;98.40
81902;DHT22;71369;50.796;3.290;2023-12-14T02:10:21;8.80;98.00
81902;DHT22;71369;50.796;3.290;2023-12-14T02:39:04;8.50;97.30
81902;DHT22;71369;50.796;3.290;2023-12-14T03:03:50;8.20;96.70
81902;DHT22;71369;50.796;3.290;2023-12-14T03:06:48;8.30;96.50
81902;DHT22;71369;50.796;3.290;2023-12-14T03:34:41;8.10;95.50
81902;DHT22;71369;50.796;3.290;2023-12-14T03:41:04;7.80;96.60
81902;DHT22;71369;50.796;3.290;2023-12-14T03:43:55;7.70;97.20
81902;DHT22;71369;50.796;3.290;2023-12-14T03:46:45;7.60;98.00
81902;DHT22;71369;50.796;3.290;2023-12-14T03:53:03;7.60;97.40
81902;DHT22;71369;50.796;3.290;2023-12-14T03:59:14;7.40;98.50
81902;DHT22;71369;50.796;3.290;2023-12-14T04:19:53;7.80;98.70
81902;DHT22;71369;50.796;3.290;2023-12-14T04:23:12;7.90;97.90
81902;DHT22;71369;50.796;3.290;2023-12-14T04:37:30;8.00;98.00
81902;DHT22;71369;50.796;3.290;2023-12-14T05:01:40;8.00;97.30
81902;DHT22;71369;50.796;3.290;2023-12-14T05:04:23;7.90;97.60
81902;DHT22;71369;50.796;3.290;2023-12-14T05:07:05;7.80;97.90
81902;DHT22;71369;50.796;3.290;2023-12-14T05:13:26;7.90;97.50
81902;DHT22;71369;50.796;3.290;2023-12-14T05:22:44;7.90;97.30
81902;DHT22;71369;50.796;3.290;2023-12-14T05:26:05;7.90;97.30
81902;DHT22;71369;50.796;3.290;2023-12-14T05:32:14;7.90;97.10
81902;DHT22;71369;50.796;3.290;2023-12-14T05:55:59;8.10;94.90
81902;DHT22;71369;50.796;3.290;2023-12-14T05:58:55;8.00;95.20
81902;DHT22;71369;50.796;3.290;2023-12-14T06:05:16;8.00;96.00
81902;DHT22;71369;50.796;3.290;2023-12-14T06:21:25;8.10;94.70
81902;DHT22;71369;50.796;3.290;2023-12-14T06:24:22;8.10;94.30
81902;DHT22;71369;50.796;3.290;2023-12-14T06:30:39;8.00;94.80
81902;DHT22;71369;50.796;3.290;2023-12-14T06:33:11;8.10;94.90
81902;DHT22;71369;50.796;3.290;2023-12-14T06:35:59;8.10;95.00
81902;DHT22;71369;50.796;3.290;2023-12-14T06:38:54;8.00;94.90
81902;DHT22;71369;50.796;3.290;2023-12-14T06:45:50;8.00;95.60
81902;DHT22;71369;50.796;3.290;2023-12-14T06:48:22;8.00;95.90
81902;DHT22;71369;50.796;3.290;2023-12-14T06:50:50;7.90;95.90
81902;DHT22;71369;50.796;3.290;2023-12-14T06:53:16;8.00;96.00
81902;DHT22;71369;50.796;3.290;2023-12-14T06:55:43;7.90;96.10
81902;DHT22;71369;50.796;3.290;2023-12-14T06:58:09;7.80;96.00
81902;DHT22;71369;50.796;3.290;2023-12-14T07:00:37;7.60;96.30
81902;DHT22;71369;50.796;3.290;2023-12-14T07:03:03;7.50;96.40
81902;DHT22;71369;50.796;3.290;2023-12-14T07:05:29;7.40;96.70
81902;DHT22;71369;50.796;3.290;2023-12-14T07:07:56;7.20;97.10
81902;DHT22;71369;50.796;3.290;2023-12-14T07:10:22;7.10;97.80
81902;DHT22;71369;50.796;3.290;2023-12-14T07:12:49;7.10;98.50
81902;DHT22;71369;50.796;3.290;2023-12-14T07:15:14;7.20;98.80
81902;DHT22;71369;50.796;3.290;2023-12-14T07:17:40;7.20;98.80
81902;DHT22;71369;50.796;3.290;2023-12-14T07:20:06;7.20;98.80
81902;DHT22;71369;50.796;3.290;2023-12-14T07:22:32;7.10;99.10
81902;DHT22;71369;50.796;3.290;2023-12-14T07:24:59;7.00;99.80
81902;DHT22;71369;50.796;3.290;2023-12-14T07:27:25;6.90;99.90
81902;DHT22;71369;50.796;3.290;2023-12-14T07:29:50;7.00;99.90
81902;DHT22;71369;50.796;3.290;2023-12-14T07:32:16;7.00;99.90
81902;DHT22;71369;50.796;3.290;2023-12-14T07:34:45;7.00;99.90
81902;DHT22;71369;50.796;3.290;2023-12-14T07:37:11;7.10;99.90
81902;DHT22;71369;50.796;3.290;2023-12-14T07:39:37;7.20;99.90
81902;DHT22;71369;50.796;3.290;2023-12-14T07:42:03;7.30;99.90
81902;DHT22;71369;50.796;3.290;2023-12-14T07:44:29;7.40;99.90
81902;DHT22;71369;50.796;3.290;2023-12-14T07:47:15;7.50;99.90
81902;DHT22;71369;50.796;3.290;2023-12-14T07:50:02;7.60;99.90
81902;DHT22;71369;50.796;3.290;2023-12-14T07:52:27;7.70;99.70
81902;DHT22;71369;50.796;3.290;2023-12-14T07:54:53;7.70;99.10
81902;DHT22;71369;50.796;3.290;2023-12-14T07:57:19;7.70;99.00
81902;DHT22;71369;50.796;3.290;2023-12-14T07:59:44;7.70;99.00
81902;DHT22;71369;50.796;3.290;2023-12-14T08:02:50;7.80;99.10
81902;DHT22;71369;50.796;3.290;2023-12-14T08:05:29;7.70;99.00
81902;DHT22;71369;50.796;3.290;2023-12-14T08:07:55;7.80;98.90
81902;DHT22;71369;50.796;3.290;2023-12-14T08:10:21;7.90;98.80
81902;DHT22;71369;50.796;3.290;2023-12-14T08:12:47;8.00;98.60
81902;DHT22;71369;50.796;3.290;2023-12-14T08:15:17;7.80;98.60
81902;DHT22;71369;50.796;3.290;2023-12-14T08:17:42;7.80;98.50
81902;DHT22;71369;50.796;3.290;2023-12-14T08:20:09;7.80;99.10
81902;DHT22;71369;50.796;3.290;2023-12-14T08:22:40;7.80;99.10
81902;DHT22;71369;50.796;3.290;2023-12-14T08:25:13;7.80;99.50
81902;DHT22;71369;50.796;3.290;2023-12-14T08:27:43;8.00;99.30
81902;DHT22;71369;50.796;3.290;2023-12-14T08:30:10;8.10;99.00
81902;DHT22;71369;50.796;3.290;2023-12-14T08:32:36;8.20;99.10
81902;DHT22;71369;50.796;3.290;2023-12-14T08:35:02;8.20;99.00
81902;DHT22;71369;50.796;3.290;2023-12-14T08:37:28;8.30;98.90
81902;DHT22;71369;50.796;3.290;2023-12-14T08:39:55;8.30;98.60
81902;DHT22;71369;50.796;3.290;2023-12-14T08:42:24;8.30;98.70
81902;DHT22;71369;50.796;3.290;2023-12-14T08:44:52;8.40;98.90
81902;DHT22;71369;50.796;3.290;2023-12-14T08:47:21;8.20;98.90
81902;DHT22;71369;50.796;3.290;2023-12-14T08:49:47;8.20;99.10
81902;DHT22;71369;50.796;3.290;2023-12-14T08:52:13;8.10;99.70
81902;DHT22;71369;50.796;3.290;2023-12-14T08:54:40;8.10;99.90
81902;DHT22;71369;50.796;3.290;2023-12-14T08:57:08;8.10;99.90
81902;DHT22;71369;50.796;3.290;2023-12-14T08:59:33;8.20;99.90
81902;DHT22;71369;50.796;3.290;2023-12-14T09:01:59;8.20;99.90
81902;DHT22;71369;50.796;3.290;2023-12-14T09:04:25;8.30;99.90
81902;DHT22;71369;50.796;3.290;2023-12-14T09:06:52;8.20;99.90
81902;DHT22;71369;50.796;3.290;2023-12-14T09:09:19;8.30;99.90
81902;DHT22;71369;50.796;3.290;2023-12-14T09:11:45;8.20;99.90
81902;DHT22;71369;50.796;3.290;2023-12-14T09:14:11;8.20;99.90
81902;DHT22;71369;50.796;3.290;2023-12-14T09:16:36;8.10;99.90
81902;DHT22;71369;50.796;3.290;2023-12-14T09:19:03;8.20;99.90
81902;DHT22;71369;50.796;3.290;2023-12-14T09:21:35;8.20;99.90
81902;DHT22;71369;50.796;3.290;2023-12-14T09:24:07;8.40;99.90
81902;DHT22;71369;50.796;3.290;2023-12-14T09:26:35;8.30;99.90
81902;DHT22;71369;50.796;3.290;2023-12-14T09:29:01;8.40;99.90
81902;DHT22;71369;50.796;3.290;2023-12-14T09:31:27;8.60;99.90
81902;DHT22;71369;50.796;3.290;2023-12-14T09:33:53;8.50;99.90
81902;DHT22;71369;50.796;3.290;2023-12-14T09:36:19;8.50;99.90
81902;DHT22;71369;50.796;3.290;2023-12-14T09:41:52;8.50;99.90
81902;DHT22;71369;50.796;3.290;2023-12-14T09:44:43;8.60;99.90
81902;DHT22;71369;50.796;3.290;2023-12-14T09:47:29;8.60;99.90
81902;DHT22;71369;50.796;3.290;2023-12-14T09:50:36;8.60;99.90
81902;DHT22;71369;50.796;3.290;2023-12-14T09:57:01;8.50;99.90
81902;DHT22;71369;50.796;3.290;2023-12-14T10:00:00;8.60;99.90
81902;DHT22;71369;50.796;3.290;2023-12-14T10:05:39;8.20;99.90
81902;DHT22;71369;50.796;3.290;2023-12-14T10:08:16;8.30;99.90
81902;DHT22;71369;50.796;3.290;2023-12-14T10:10:43;8.30;99.90
81902;DHT22;71369;50.796;3.290;2023-12-14T10:13:43;8.30;99.90
81902;DHT22;71369;50.796;3.290;2023-12-14T10:16:43;8.50;99.90
81902;DHT22;71369;50.796;3.290;2023-12-14T10:19:11;8.40;99.90
81902;DHT22;71369;50.796;3.290;2023-12-14T10:21:37;8.20;99.90
81902;DHT22;71369;50.796;3.290;2023-12-14T10:24:03;8.30;99.90
81902;DHT22;71369;50.796;3.290;2023-12-14T10:26:38;8.40;99.90
81902;DHT22;71369;50.796;3.290;2023-12-14T10:32:16;8.40;99.90
81902;DHT22;71369;50.796;3.290;2023-12-14T10:34:51;8.70;99.90
81902;DHT22;71369;50.796;3.290;2023-12-14T11:05:24;8.90;99.00
81902;DHT22;71369;50.796;3.290;2023-12-14T11:08:34;8.70;98.50
81902;DHT22;71369;50.796;3.290;2023-12-14T11:14:52;8.50;99.10
81902;DHT22;71369;50.796;3.290;2023-12-14T11:25:09;8.50;97.90
81902;DHT22;71369;50.796;3.290;2023-12-14T11:27:43;8.60;98.40
81902;DHT22;71369;50.796;3.290;2023-12-14T11:30:47;8.60;98.60
81902;DHT22;71369;50.796;3.290;2023-12-14T11:36:40;8.90;97.30
81902;DHT22;71369;50.796;3.290;2023-12-14T11:39:09;8.80;97.20
81902;DHT22;71369;50.796;3.290;2023-12-14T11:41:35;8.80;97.00
81902;DHT22;71369;50.796;3.290;2023-12-14T11:44:02;8.90;96.90
81902;DHT22;71369;50.796;3.290;2023-12-14T11:46:29;8.90;96.40
81902;DHT22;71369;50.796;3.290;2023-12-14T11:48:57;8.90;96.20
81902;DHT22;71369;50.796;3.290;2023-12-14T11:51:23;8.90;95.90
81902;DHT22;71369;50.796;3.290;2023-12-14T11:53:51;9.00;96.00
81902;DHT22;71369;50.796;3.290;2023-12-14T11:56:18;9.00;95.40
81902;DHT22;71369;50.796;3.290;2023-12-14T11:58:44;8.90;95.70
81902;DHT22;71369;50.796;3.290;2023-12-14T12:01:18;8.90;95.90
81902;DHT22;71369;50.796;3.290;2023-12-14T12:03:46;9.00;95.80
81902;DHT22;71369;50.796;3.290;2023-12-14T12:06:25;8.90;95.20
81902;DHT22;71369;50.796;3.290;2023-12-14T12:08:59;8.90;95.50
81902;DHT22;71369;50.796;3.290;2023-12-14T12:11:25;9.00;95.20
81902;DHT22;71369;50.796;3.290;2023-12-14T12:13:54;9.20;95.30
81902;DHT22;71369;50.796;3.290;2023-12-14T12:16:21;9.30;94.30
81902;DHT22;71369;50.796;3.290;2023-12-14T12:18:47;9.20;94.50
81902;DHT22;71369;50.796;3.290;2023-12-14T12:21:13;9.30;94.00
81902;DHT22;71369;50.796;3.290;2023-12-14T12:23:38;9.30;94.10
81902;DHT22;71369;50.796;3.290;2023-12-14T12:26:05;9.30;93.90
81902;DHT22;71369;50.796;3.290;2023-12-14T12:28:32;9.20;94.40
81902;DHT22;71369;50.796;3.290;2023-12-14T12:30:58;9.40;94.50
81902;DHT22;71369;50.796;3.290;2023-12-14T12:33:25;9.60;93.90
81902;DHT22;71369;50.796;3.290;2023-12-14T12:35:51;9.80;93.30
81902;DHT22;71369;50.796;3.290;2023-12-14T12:38:17;9.80;93.10
81902;DHT22;71369;50.796;3.290;2023-12-14T12:40:44;9.90;92.00
81902;DHT22;71369;50.796;3.290;2023-12-14T12:43:11;9.70;91.60
81902;DHT22;71369;50.796;3.290;2023-12-14T12:45:37;9.50;91.80
81902;DHT22;71369;50.796;3.290;2023-12-14T12:48:04;9.40;91.70
81902;DHT22;71369;50.796;3.290;2023-12-14T12:50:31;9.20;92.30
81902;DHT22;71369;50.796;3.290;2023-12-14T12:52:57;9.00;92.40
81902;DHT22;71369;50.796;3.290;2023-12-14T12:55:23;9.00;92.60
81902;DHT22;71369;50.796;3.290;2023-12-14T12:57:49;9.00;92.60
81902;DHT22;71369;50.796;3.290;2023-12-14T13:00:15;9.10;92.10
81902;DHT22;71369;50.796;3.290;2023-12-14T13:02:43;9.10;92.50
81902;DHT22;71369;50.796;3.290;2023-12-14T13:05:09;9.00;92.60
81902;DHT22;71369;50.796;3.290;2023-12-14T13:07:38;8.90;92.60
81902;DHT22;71369;50.796;3.290;2023-12-14T13:10:04;8.90;92.50
81902;DHT22;71369;50.796;3.290;2023-12-14T13:12:34;8.80;92.30
81902;DHT22;71369;50.796;3.290;2023-12-14T13:15:10;8.70;92.80
81902;DHT22;71369;50.796;3.290;2023-12-14T13:17:40;8.80;92.90
81902;DHT22;71369;50.796;3.290;2023-12-14T13:20:58;8.70;92.80
81902;DHT22;71369;50.796;3.290;2023-12-14T13:23:46;8.70;92.60
81902;DHT22;71369;50.796;3.290;2023-12-14T13:26:35;8.60;93.20
81902;DHT22;71369;50.796;3.290;2023-12-14T13:29:24;8.60;92.70
81902;DHT22;71369;50.796;3.290;2023-12-14T13:32:00;8.80;93.70
81902;DHT22;71369;50.796;3.290;2023-12-14T13:34:26;8.60;93.50
81902;DHT22;71369;50.796;3.290;2023-12-14T13:36:54;8.60;93.90
81902;DHT22;71369;50.796;3.290;2023-12-14T13:39:20;8.70;93.40
81902;DHT22;71369;50.796;3.290;2023-12-14T13:41:54;8.70;93.00
81902;DHT22;71369;50.796;3.290;2023-12-14T13:44:29;8.60;93.40
81902;DHT22;71369;50.796;3.290;2023-12-14T13:47:04;8.70;93.00
81902;DHT22;71369;50.796;3.290;2023-12-14T13:49:33;8.50;93.50
81902;DHT22;71369;50.796;3.290;2023-12-14T13:52:05;8.40;93.90
81902;DHT22;71369;50.796;3.290;2023-12-14T15:23:09;8.00;95.10
81902;DHT22;71369;50.796;3.290;2023-12-14T15:26:26;8.10;94.90
81902;DHT22;71369;50.796;3.290;2023-12-14T16:52:44;7.20;98.70
81902;DHT22;71369;50.796;3.290;2023-12-14T16:59:15;7.30;98.20
81902;DHT22;71369;50.796;3.290;2023-12-14T17:01:40;7.40;98.00
81902;DHT22;71369;50.796;3.290;2023-12-14T17:18:03;7.40;97.20
81902;DHT22;71369;50.796;3.290;2023-12-14T17:21:25;7.40;97.20
81902;DHT22;71369;50.796;3.290;2023-12-14T17:31:41;7.50;96.90
81902;DHT22;71369;50.796;3.290;2023-12-14T17:41:04;7.70;96.80
81902;DHT22;71369;50.796;3.290;2023-12-14T17:43:44;7.70;97.00
81902;DHT22;71369;50.796;3.290;2023-12-14T17:46:22;7.70;96.50
81902;DHT22;71369;50.796;3.290;2023-12-14T17:48:54;7.70;96.20
81902;DHT22;71369;50.796;3.290;2023-12-14T17:51:25;7.80;95.50
81902;DHT22;71369;50.796;3.290;2023-12-14T18:00:59;7.90;95.30
81902;DHT22;71369;50.796;3.290;2023-12-14T18:04:14;8.00;95.30
81902;DHT22;71369;50.796;3.290;2023-12-14T18:07:06;8.00;95.60
81902;DHT22;71369;50.796;3.290;2023-12-14T18:09:51;8.00;95.60
81902;DHT22;71369;50.796;3.290;2023-12-14T18:12:20;8.00;95.70
81902;DHT22;71369;50.796;3.290;2023-12-14T18:14:46;8.00;95.70
81902;DHT22;71369;50.796;3.290;2023-12-14T18:51:05;7.60;97.80
81902;DHT22;71369;50.796;3.290;2023-12-14T19:17:37;7.50;99.10
81902;DHT22;71369;50.796;3.290;2023-12-14T19:44:51;7.50;99.10
81902;DHT22;71369;50.796;3.290;2023-12-14T19:47:19;7.60;99.30
81902;DHT22;71369;50.796;3.290;2023-12-14T19:50:13;7.50;99.20
81902;DHT22;71369;50.796;3.290;2023-12-14T19:53:02;7.50;99.40
81902;DHT22;71369;50.796;3.290;2023-12-14T19:59:07;7.40;99.90
81902;DHT22;71369;50.796;3.290;2023-12-14T20:01:36;7.30;99.90
81902;DHT22;71369;50.796;3.290;2023-12-14T20:04:02;7.30;99.90
81902;DHT22;71369;50.796;3.290;2023-12-14T20:06:34;7.30;99.90
81902;DHT22;71369;50.796;3.290;2023-12-14T20:09:01;7.20;99.90
81902;DHT22;71369;50.796;3.290;2023-12-14T20:11:41;7.20;99.90
81902;DHT22;71369;50.796;3.290;2023-12-14T20:14:23;7.20;99.90
81902;DHT22;71369;50.796;3.290;2023-12-14T20:16:49;7.10;99.90
81902;DHT22;71369;50.796;3.290;2023-12-14T20:19:18;7.10;99.90
81902;DHT22;71369;50.796;3.290;2023-12-14T20:22:25;7.10;99.90
81902;DHT22;71369;50.796;3.290;2023-12-14T20:25:03;7.20;99.90
81902;DHT22;71369;50.796;3.290;2023-12-14T20:28:20;7.20;99.90
81902;DHT22;71369;50.796;3.290;2023-12-14T20:37:54;7.20;99.90
81902;DHT22;71369;50.796;3.290;2023-12-14T20:40:33;7.20;99.90
81902;DHT22;71369;50.796;3.290;2023-12-14T20:43:49;7.20;99.90
81902;DHT22;71369;50.796;3.290;2023-12-14T21:33:50;7.50;99.90
81902;DHT22;71369;50.796;3.290;2023-12-14T21:36:30;7.60;99.90
81902;DHT22;71369;50.796;3.290;2023-12-14T21:39:45;7.60;99.90
